Time;durP1;ratioP1;P1;durP2;ratioP2;P2;SDS_P1;SDS_P2;PMS_P1;PMS_P2;Temp;Humidity;BMP_temperature;BMP_pressure;BME280_temperature;BME280_humidity;BME280_pressure;Samples;Min_cycle;Max_cycle;Signal;HPM_P1;HPM_P2
2021/10/25 00:01:44;;;;;;;10.98;4.80;;;7.50;99.90;;;;;;5039776;28;20098;-68
2021/10/25 00:04:09;;;;;;;10.85;4.90;;;7.50;99.90;;;;;;5037576;28;20433;-68
2021/10/25 00:06:38;;;;;;;10.27;3.92;;;7.50;99.90;;;;;;5040967;28;20171;-68
2021/10/25 00:09:04;;;;;;;11.52;4.00;;;7.50;99.90;;;;;;5026046;28;20029;-69
2021/10/25 00:11:30;;;;;;;9.30;4.00;;;7.50;99.90;;;;;;5023225;28;20061;-68
2021/10/25 00:13:55;;;;;;;9.38;3.95;;;7.40;99.90;;;;;;5037794;28;20064;-68
2021/10/25 00:16:21;;;;;;;13.43;4.53;;;7.50;99.90;;;;;;5039384;28;20056;-69
2021/10/25 00:18:47;;;;;;;11.02;3.25;;;7.40;99.90;;;;;;5020338;28;20565;-68
2021/10/25 00:21:12;;;;;;;11.05;3.88;;;7.50;99.90;;;;;;5020224;28;20653;-68
2021/10/25 00:23:38;;;;;;;12.32;4.75;;;7.50;99.90;;;;;;5021867;28;20373;-68
2021/10/25 00:26:04;;;;;;;7.47;3.95;;;7.50;99.90;;;;;;5019279;28;20044;-69
2021/10/25 00:28:29;;;;;;;7.45;3.83;;;7.60;99.90;;;;;;5040351;28;20100;-69
2021/10/25 00:30:55;;;;;;;11.70;5.20;;;7.60;99.90;;;;;;5037036;28;20049;-68
2021/10/25 00:33:21;;;;;;;8.30;4.35;;;7.70;99.90;;;;;;5021059;28;20107;-69
2021/10/25 00:35:46;;;;;;;8.32;3.90;;;7.80;99.90;;;;;;5038438;28;20037;-68
2021/10/25 00:38:12;;;;;;;6.90;3.70;;;7.90;99.90;;;;;;5037401;28;20034;-68
2021/10/25 00:40:38;;;;;;;9.27;4.30;;;8.00;99.90;;;;;;5021336;28;20059;-68
2021/10/25 00:43:04;;;;;;;6.95;3.67;;;8.00;99.90;;;;;;5020741;28;20041;-69
2021/10/25 00:45:30;;;;;;;9.80;3.80;;;8.10;99.90;;;;;;5036844;28;20033;-68
2021/10/25 00:47:57;;;;;;;7.95;3.38;;;8.10;99.90;;;;;;5043258;28;20036;-69
2021/10/25 00:50:23;;;;;;;10.13;4.30;;;8.20;99.90;;;;;;5042987;28;20369;-68
2021/10/25 00:52:48;;;;;;;7.35;4.03;;;8.20;99.90;;;;;;5019820;28;20102;-68
2021/10/25 00:55:14;;;;;;;8.98;4.10;;;8.30;99.90;;;;;;5020149;28;20041;-68
2021/10/25 00:57:40;;;;;;;9.07;4.13;;;8.30;99.90;;;;;;5038753;28;20078;-68
2021/10/25 01:00:08;;;;;;;7.43;2.95;;;8.30;99.90;;;;;;5018389;28;20401;-68
2021/10/25 01:02:34;;;;;;;9.73;3.88;;;8.40;99.90;;;;;;5021528;28;20044;-68
2021/10/25 01:04:59;;;;;;;13.07;4.72;;;8.40;99.90;;;;;;5018391;28;20037;-70
2021/10/25 01:07:26;;;;;;;7.75;3.30;;;8.40;99.90;;;;;;5040280;28;20039;-68
2021/10/25 01:09:52;;;;;;;8.88;4.82;;;8.50;99.90;;;;;;5036130;28;20067;-67
2021/10/25 01:12:20;;;;;;;8.02;3.67;;;8.50;99.90;;;;;;5019020;28;21451;-67
2021/10/25 01:14:45;;;;;;;8.02;3.85;;;8.50;99.90;;;;;;5039236;28;20392;-68
2021/10/25 01:17:11;;;;;;;6.90;3.22;;;8.60;99.90;;;;;;5020095;28;20106;-68
2021/10/25 01:19:36;;;;;;;8.35;3.72;;;8.60;99.90;;;;;;5020365;28;20038;-68
2021/10/25 01:22:02;;;;;;;9.85;3.97;;;8.60;99.90;;;;;;5021440;28;20045;-69
2021/10/25 01:24:28;;;;;;;6.22;3.33;;;8.60;99.90;;;;;;5019042;28;20163;-68
2021/10/25 01:26:53;;;;;;;9.23;3.75;;;8.60;99.90;;;;;;5022742;28;20041;-68
2021/10/25 01:29:19;;;;;;;8.68;3.95;;;8.60;99.90;;;;;;5018178;28;20076;-68
2021/10/25 01:31:46;;;;;;;8.30;3.60;;;8.70;99.90;;;;;;5039174;28;20718;-68
2021/10/25 01:34:13;;;;;;;6.97;3.35;;;8.60;99.90;;;;;;5036994;28;20037;-69
2021/10/25 01:36:40;;;;;;;8.23;3.28;;;8.70;99.90;;;;;;5038101;28;20037;-67
2021/10/25 01:39:09;;;;;;;8.68;3.53;;;8.70;99.90;;;;;;5037483;28;20033;-68
2021/10/25 01:41:36;;;;;;;7.88;2.97;;;8.70;99.90;;;;;;5037649;28;20041;-68
2021/10/25 01:44:02;;;;;;;9.18;3.67;;;8.70;99.90;;;;;;5021968;28;20037;-70
2021/10/25 01:46:28;;;;;;;8.05;4.05;;;8.70;99.90;;;;;;5039936;28;20314;-68
2021/10/25 01:48:54;;;;;;;10.50;3.55;;;8.70;99.90;;;;;;5038737;28;20039;-68
2021/10/25 01:51:20;;;;;;;8.32;3.40;;;8.70;99.90;;;;;;5018001;28;20041;-68
2021/10/25 01:53:46;;;;;;;9.23;3.63;;;8.70;99.90;;;;;;5042652;28;20094;-68
2021/10/25 01:56:13;;;;;;;6.35;3.20;;;8.70;99.90;;;;;;5040696;28;20037;-68
2021/10/25 01:58:38;;;;;;;7.60;3.72;;;8.80;99.90;;;;;;5023939;28;20095;-68
2021/10/25 02:01:05;;;;;;;9.00;3.78;;;8.80;99.90;;;;;;5023259;28;20479;-70
2021/10/25 02:03:34;;;;;;;10.18;3.75;;;8.80;99.90;;;;;;5022666;28;20103;-68
2021/10/25 02:06:00;;;;;;;9.77;3.50;;;8.80;99.90;;;;;;5042476;28;20033;-68
2021/10/25 02:08:26;;;;;;;12.30;3.58;;;8.80;99.90;;;;;;5021034;28;20076;-69
2021/10/25 02:10:52;;;;;;;8.38;3.85;;;8.90;99.90;;;;;;5042920;28;20029;-68
2021/10/25 02:13:18;;;;;;;13.05;4.35;;;8.90;99.90;;;;;;5021746;28;20208;-68
2021/10/25 02:15:45;;;;;;;8.45;3.85;;;8.90;99.90;;;;;;5024660;28;20496;-68
2021/10/25 02:18:12;;;;;;;10.95;3.92;;;8.90;99.90;;;;;;5022139;28;20044;-69
2021/10/25 02:20:40;;;;;;;8.52;3.17;;;8.90;99.90;;;;;;5041753;28;20489;-68
2021/10/25 02:23:07;;;;;;;8.95;4.20;;;9.00;99.90;;;;;;5040852;28;20041;-69
2021/10/25 02:25:33;;;;;;;7.13;3.80;;;9.00;99.90;;;;;;5040556;28;20029;-68
2021/10/25 02:27:59;;;;;;;6.72;3.78;;;9.00;99.90;;;;;;5024508;28;20135;-68
2021/10/25 02:30:24;;;;;;;10.65;4.18;;;9.00;99.90;;;;;;5038616;28;20065;-68
2021/10/25 02:32:50;;;;;;;9.93;3.60;;;9.00;99.90;;;;;;5025284;28;20060;-68
2021/10/25 02:35:16;;;;;;;11.55;3.53;;;9.00;99.90;;;;;;5021003;28;20040;-68
2021/10/25 02:37:41;;;;;;;7.82;3.20;;;9.00;99.90;;;;;;5024154;28;20029;-69
2021/10/25 02:40:08;;;;;;;15.40;4.05;;;9.00;99.90;;;;;;5039509;28;20048;-68
2021/10/25 02:42:33;;;;;;;10.30;3.40;;;9.00;99.90;;;;;;5041121;28;20033;-68
2021/10/25 02:44:59;;;;;;;7.40;3.15;;;9.00;99.90;;;;;;5024467;28;20132;-73
2021/10/25 02:47:24;;;;;;;9.38;3.25;;;9.00;99.90;;;;;;5042094;28;20392;-68
2021/10/25 02:49:50;;;;;;;7.57;3.42;;;9.00;99.90;;;;;;5042358;28;20151;-68
2021/10/25 02:52:15;;;;;;;10.90;3.80;;;9.10;99.90;;;;;;5020424;28;20062;-69
2021/10/25 02:54:41;;;;;;;11.95;3.58;;;9.10;99.90;;;;;;5023539;28;20040;-68
2021/10/25 02:57:07;;;;;;;5.60;3.28;;;9.00;99.90;;;;;;5039361;28;20041;-68
2021/10/25 02:59:32;;;;;;;8.32;3.40;;;9.00;99.90;;;;;;5040333;28;20037;-69
2021/10/25 03:01:58;;;;;;;6.43;3.67;;;9.10;99.90;;;;;;5023353;28;20091;-69
2021/10/25 03:04:23;;;;;;;8.52;3.53;;;9.10;99.90;;;;;;5037766;28;20385;-69
2021/10/25 03:06:49;;;;;;;11.38;3.38;;;9.10;99.90;;;;;;5023540;28;20087;-68
2021/10/25 03:09:14;;;;;;;6.65;3.13;;;9.20;99.90;;;;;;5019948;28;20034;-69
2021/10/25 03:11:40;;;;;;;9.48;3.13;;;9.20;99.90;;;;;;5022913;28;20048;-68
2021/10/25 03:14:06;;;;;;;6.50;3.50;;;9.10;99.90;;;;;;5021503;28;20040;-67
2021/10/25 03:16:32;;;;;;;6.60;3.28;;;9.20;99.90;;;;;;5022234;28;20113;-68
2021/10/25 03:18:58;;;;;;;6.38;3.20;;;9.10;99.90;;;;;;5040854;28;20064;-68
2021/10/25 03:21:23;;;;;;;7.38;2.90;;;9.20;99.90;;;;;;5019730;28;20060;-67
2021/10/25 03:23:50;;;;;;;11.43;3.63;;;9.20;99.90;;;;;;5023716;28;20468;-67
2021/10/25 03:26:16;;;;;;;9.25;3.67;;;9.20;99.90;;;;;;5037158;28;20042;-69
2021/10/25 03:28:43;;;;;;;6.18;3.67;;;9.20;99.90;;;;;;5040763;28;20029;-68
2021/10/25 03:31:10;;;;;;;10.40;3.58;;;9.20;99.90;;;;;;5020033;28;20052;-69
2021/10/25 03:33:35;;;;;;;6.82;3.47;;;9.20;99.90;;;;;;5040422;28;20026;-68
2021/10/25 03:36:04;;;;;;;7.68;2.85;;;9.20;99.90;;;;;;5039480;28;20037;-68
2021/10/25 03:38:31;;;;;;;8.85;3.67;;;9.20;99.90;;;;;;5038798;28;20033;-67
2021/10/25 03:40:58;;;;;;;7.13;3.40;;;9.30;99.90;;;;;;5022405;28;20086;-67
2021/10/25 03:43:28;;;;;;;9.85;3.47;;;9.30;99.90;;;;;;5041206;28;20400;-68
2021/10/25 03:46:40;;;;;;;9.23;3.08;;;9.30;99.90;;;;;;5038374;28;20068;-68
2021/10/25 03:48:49;;;;;;;6.55;3.85;;;9.30;99.90;;;;;;5033283;28;20079;-68
2021/10/25 03:51:16;;;;;;;9.27;3.42;;;9.30;99.90;;;;;;5022430;28;20037;-69
2021/10/25 03:56:18;;;;;;;6.10;2.92;;;9.30;99.90;;;;;;5039463;28;20477;-69
2021/10/25 04:28:09;;;;;;;9.02;3.10;;;9.40;99.90;;;;;;5038107;28;20037;-69
2021/10/25 04:30:36;;;;;;;7.50;3.72;;;9.40;99.90;;;;;;5019608;28;20037;-68
2021/10/25 04:33:02;;;;;;;8.52;3.42;;;9.40;99.90;;;;;;5038097;28;20046;-70
2021/10/25 04:35:29;;;;;;;9.32;2.97;;;9.30;99.90;;;;;;5020734;28;20025;-68
2021/10/25 04:37:55;;;;;;;5.05;3.00;;;9.30;99.90;;;;;;5038020;28;20030;-68
2021/10/25 04:40:20;;;;;;;11.38;4.38;;;9.30;99.90;;;;;;5020940;28;20025;-68
2021/10/25 04:42:46;;;;;;;10.55;4.18;;;9.30;99.90;;;;;;5022601;28;20082;-69
2021/10/25 04:45:12;;;;;;;6.28;3.42;;;9.30;99.90;;;;;;5021321;28;20041;-69
2021/10/25 04:47:38;;;;;;;8.27;3.60;;;9.20;99.90;;;;;;5037365;28;20033;-68
2021/10/25 04:50:05;;;;;;;6.25;3.40;;;9.30;99.90;;;;;;5043899;28;20036;-69
2021/10/25 04:52:30;;;;;;;7.65;3.65;;;9.30;99.90;;;;;;5020445;28;20091;-68
2021/10/25 04:54:56;;;;;;;11.95;4.70;;;9.20;99.90;;;;;;5038740;28;20037;-68
2021/10/25 04:57:21;;;;;;;9.05;4.00;;;9.20;99.90;;;;;;5036529;28;20469;-68
2021/10/25 04:59:47;;;;;;;8.20;3.72;;;9.10;99.90;;;;;;5039304;28;20033;-68
2021/10/25 05:02:14;;;;;;;9.82;4.78;;;9.10;99.90;;;;;;5036036;28;20390;-68
2021/10/25 05:04:39;;;;;;;10.63;5.15;;;9.20;99.90;;;;;;5047366;28;20052;-68
2021/10/25 05:07:05;;;;;;;8.82;3.70;;;9.20;99.90;;;;;;5045438;28;20071;-69
2021/10/25 05:09:30;;;;;;;11.13;4.57;;;9.20;99.90;;;;;;5041804;28;20128;-68
2021/10/25 05:11:57;;;;;;;13.55;3.92;;;9.20;99.90;;;;;;5019874;28;20038;-68
2021/10/25 05:14:23;;;;;;;8.10;4.20;;;9.20;99.90;;;;;;5037526;28;20104;-68
2021/10/25 05:16:48;;;;;;;12.88;4.88;;;9.20;99.90;;;;;;5019254;28;20113;-69
2021/10/25 05:19:14;;;;;;;7.85;3.83;;;9.20;99.90;;;;;;5020837;28;20056;-69
2021/10/25 05:21:39;;;;;;;9.18;4.10;;;9.20;99.90;;;;;;5018323;28;20037;-69
2021/10/25 05:24:05;;;;;;;12.02;4.28;;;9.20;99.90;;;;;;5017528;28;20037;-69
2021/10/25 05:26:31;;;;;;;11.73;5.18;;;9.30;99.90;;;;;;5022641;28;20034;-69
2021/10/25 05:28:57;;;;;;;14.02;5.43;;;9.30;99.90;;;;;;5041300;28;20048;-69
2021/10/25 05:31:24;;;;;;;11.32;5.28;;;9.30;99.90;;;;;;5023136;28;20038;-68
2021/10/25 05:33:50;;;;;;;13.52;5.70;;;9.30;99.90;;;;;;5024887;28;20076;-68
2021/10/25 05:36:15;;;;;;;11.57;5.50;;;9.20;99.90;;;;;;5041495;28;20052;-69
2021/10/25 05:38:41;;;;;;;12.65;5.47;;;9.30;99.90;;;;;;5028920;28;20083;-69
2021/10/25 05:41:09;;;;;;;10.77;4.75;;;9.30;99.90;;;;;;5021315;28;20043;-69
2021/10/25 05:43:35;;;;;;;13.48;5.57;;;9.30;99.90;;;;;;5040478;28;20561;-69
2021/10/25 05:46:01;;;;;;;13.18;5.43;;;9.30;99.90;;;;;;5025830;28;20031;-70
2021/10/25 05:48:27;;;;;;;12.93;5.72;;;9.30;99.90;;;;;;5040088;28;20473;-68
2021/10/25 05:50:54;;;;;;;10.25;5.20;;;9.30;99.90;;;;;;5041412;28;20037;-69
2021/10/25 05:53:19;;;;;;;13.45;5.00;;;9.30;99.90;;;;;;5022672;28;20029;-68
2021/10/25 05:55:46;;;;;;;14.90;5.53;;;9.40;99.90;;;;;;5042578;28;20067;-68
2021/10/25 05:58:21;;;;;;;14.75;5.53;;;9.40;99.90;;;;;;5020352;28;20106;-69
2021/10/25 06:01:02;;;;;;;13.80;5.35;;;9.40;99.90;;;;;;5042468;28;20053;-69
2021/10/25 06:03:32;;;;;;;11.27;5.25;;;9.40;99.90;;;;;;5023475;28;20440;-69
2021/10/25 06:05:57;;;;;;;11.70;4.70;;;9.40;99.90;;;;;;5040924;28;20119;-68
2021/10/25 06:08:23;;;;;;;12.07;5.82;;;9.30;99.90;;;;;;5039946;28;20121;-69
2021/10/25 06:10:49;;;;;;;10.63;4.63;;;9.30;99.90;;;;;;5042810;28;20045;-68
2021/10/25 06:13:23;;;;;;;11.65;5.00;;;9.40;99.90;;;;;;5041584;28;20079;-68
2021/10/25 06:18:50;;;;;;;15.18;5.68;;;9.30;99.90;;;;;;4956889;28;20184;-68
2021/10/25 06:21:16;;;;;;;12.27;4.57;;;9.40;99.90;;;;;;5009687;28;20172;-68
2021/10/25 06:23:41;;;;;;;15.07;6.15;;;9.30;99.90;;;;;;5042732;28;20112;-68
2021/10/25 06:26:07;;;;;;;11.18;5.38;;;9.40;99.90;;;;;;5020681;28;20049;-68
2021/10/25 06:28:32;;;;;;;17.02;5.75;;;9.30;99.90;;;;;;5024571;28;20108;-68
2021/10/25 06:31:04;;;;;;;19.35;6.40;;;9.30;99.90;;;;;;5023334;28;20037;-67
2021/10/25 06:33:30;;;;;;;16.55;5.93;;;9.30;99.90;;;;;;5023388;28;20509;-68
2021/10/25 06:36:02;;;;;;;12.93;5.55;;;9.30;99.90;;;;;;5040808;28;20041;-68
2021/10/25 06:38:35;;;;;;;11.65;5.25;;;9.40;99.90;;;;;;5039934;28;20033;-68
2021/10/25 06:41:02;;;;;;;11.80;5.05;;;9.30;99.90;;;;;;5039511;28;20037;-69
2021/10/25 06:43:28;;;;;;;12.93;5.93;;;9.30;99.90;;;;;;5040190;28;20116;-69
2021/10/25 06:45:54;;;;;;;12.43;5.57;;;9.30;99.90;;;;;;5041236;28;20033;-68
2021/10/25 06:48:21;;;;;;;15.75;5.95;;;9.30;99.90;;;;;;5039917;28;20047;-69
2021/10/25 06:50:47;;;;;;;13.93;5.55;;;9.30;99.90;;;;;;5046630;28;20499;-69
2021/10/25 06:53:14;;;;;;;20.50;6.20;;;9.30;99.90;;;;;;5023416;28;20048;-69
2021/10/25 06:55:40;;;;;;;17.55;5.20;;;9.30;99.90;;;;;;5050077;28;20040;-68
2021/10/25 06:58:07;;;;;;;17.90;5.60;;;9.30;99.90;;;;;;5040948;28;20119;-69
2021/10/25 07:00:33;;;;;;;16.25;5.05;;;9.30;99.90;;;;;;5047038;28;20033;-69
2021/10/25 07:02:58;;;;;;;9.88;4.53;;;9.30;99.90;;;;;;5049791;28;20037;-69
2021/10/25 07:05:24;;;;;;;14.32;5.70;;;9.30;99.90;;;;;;5031185;28;20049;-68
2021/10/25 07:07:50;;;;;;;12.23;4.70;;;9.30;99.90;;;;;;5032001;28;20041;-69
2021/10/25 07:10:16;;;;;;;11.65;5.63;;;9.30;99.90;;;;;;5030861;28;20061;-68
2021/10/25 07:12:44;;;;;;;15.10;5.45;;;9.40;99.90;;;;;;5024594;28;20559;-68
2021/10/25 07:15:10;;;;;;;17.33;5.28;;;9.30;99.90;;;;;;5025230;28;20054;-68
2021/10/25 07:17:49;;;;;;;13.82;5.47;;;9.30;99.90;;;;;;5049236;28;20033;-68
2021/10/25 08:09:09;;;;;;;20.85;7.55;;;9.80;99.90;;;;;;5042746;28;20481;-68
2021/10/25 08:11:42;;;;;;;17.57;8.33;;;9.80;99.90;;;;;;5022824;28;20087;-69
2021/10/25 08:14:09;;;;;;;15.48;7.50;;;9.90;99.90;;;;;;5040911;28;20102;-69
2021/10/25 08:19:27;;;;;;;24.75;8.30;;;9.90;99.90;;;;;;5041403;28;20040;-68
2021/10/25 08:21:54;;;;;;;13.52;6.65;;;9.80;99.90;;;;;;5041355;28;20060;-68
2021/10/25 08:24:22;;;;;;;15.68;7.18;;;9.90;99.90;;;;;;5021047;28;20033;-69
2021/10/25 08:26:49;;;;;;;17.48;7.35;;;10.00;99.90;;;;;;5021380;28;20056;-68
2021/10/25 08:29:16;;;;;;;15.95;6.95;;;9.90;99.90;;;;;;5031868;28;20576;-69
2021/10/25 08:31:43;;;;;;;16.60;6.80;;;10.00;99.90;;;;;;5019261;28;20074;-70
2021/10/25 08:39:52;;;;;;;19.23;6.93;;;10.00;99.90;;;;;;5035502;28;20485;-68
2021/10/25 08:42:39;;;;;;;14.25;6.50;;;10.00;99.90;;;;;;5022350;28;20059;-70
2021/10/25 08:45:17;;;;;;;17.92;6.68;;;10.00;99.90;;;;;;5036622;28;20044;-68
2021/10/25 08:47:46;;;;;;;15.55;6.78;;;10.10;99.90;;;;;;5042224;28;20550;-69
2021/10/25 08:50:15;;;;;;;17.70;6.93;;;10.00;99.90;;;;;;5018073;28;20551;-69
2021/10/25 08:52:41;;;;;;;14.18;7.03;;;10.10;99.90;;;;;;5016788;28;20041;-69
2021/10/25 08:55:10;;;;;;;12.48;6.68;;;10.10;99.90;;;;;;5017404;28;20074;-69
2021/10/25 08:57:36;;;;;;;14.82;6.43;;;10.20;99.90;;;;;;5016752;28;20520;-69
2021/10/25 09:00:09;;;;;;;23.25;7.40;;;10.20;99.90;;;;;;5036563;28;20029;-70
2021/10/25 09:02:35;;;;;;;17.00;6.35;;;10.30;99.90;;;;;;5018864;28;20065;-69
2021/10/25 09:05:07;;;;;;;15.13;5.65;;;10.30;99.90;;;;;;5034459;28;20069;-70
2021/10/25 09:07:49;;;;;;;17.60;6.47;;;10.30;99.90;;;;;;5019716;28;20451;-69
2021/10/25 09:10:21;;;;;;;13.20;5.28;;;10.30;99.90;;;;;;5016426;28;20038;-70
2021/10/25 09:12:52;;;;;;;11.65;5.38;;;10.40;99.90;;;;;;5017920;28;20040;-69
2021/10/25 09:15:18;;;;;;;13.85;5.82;;;10.30;99.90;;;;;;5035222;28;20057;-69
2021/10/25 09:17:43;;;;;;;18.48;6.18;;;10.30;99.90;;;;;;5035985;28;20385;-68
2021/10/25 09:20:10;;;;;;;11.50;4.68;;;10.40;99.90;;;;;;5020423;28;20045;-69
2021/10/25 09:22:35;;;;;;;12.15;5.30;;;10.40;99.90;;;;;;5022562;28;20029;-68
2021/10/25 09:25:01;;;;;;;13.07;5.38;;;10.40;99.90;;;;;;5026207;28;20040;-69
2021/10/25 09:27:34;;;;;;;14.75;6.13;;;10.40;99.90;;;;;;5025522;28;20029;-68
2021/10/25 09:30:22;;;;;;;14.10;5.47;;;10.40;99.90;;;;;;5040556;28;20025;-69
2021/10/25 09:32:48;;;;;;;12.50;5.75;;;10.50;99.90;;;;;;5039977;28;20037;-70
2021/10/25 09:35:19;;;;;;;16.45;6.05;;;10.50;99.90;;;;;;5019815;28;20060;-70
2021/10/25 09:37:57;;;;;;;11.98;5.30;;;10.50;99.90;;;;;;5037835;28;20075;-69
2021/10/25 09:40:33;;;;;;;12.50;5.22;;;10.60;99.90;;;;;;5020622;28;20106;-69
2021/10/25 09:43:14;;;;;;;12.88;5.93;;;10.60;99.90;;;;;;5025561;28;20041;-69
2021/10/25 09:50:54;;;;;;;14.88;6.20;;;10.90;99.90;;;;;;5040475;28;20033;-69
2021/10/25 09:53:55;;;;;;;13.18;5.43;;;10.90;99.90;;;;;;5020700;28;20037;-69
2021/10/25 09:56:30;;;;;;;13.52;6.18;;;11.00;99.90;;;;;;5028672;28;20053;-69
2021/10/25 09:59:08;;;;;;;15.73;5.00;;;11.10;99.90;;;;;;5022043;28;20033;-68
2021/10/25 10:01:41;;;;;;;16.90;6.55;;;11.10;99.90;;;;;;5021737;28;20040;-69
2021/10/25 10:04:07;;;;;;;16.83;6.28;;;11.10;99.90;;;;;;5018452;28;20033;-71
2021/10/25 10:06:33;;;;;;;14.23;5.75;;;11.10;99.90;;;;;;5038555;28;20039;-69
2021/10/25 10:09:00;;;;;;;17.30;7.15;;;11.10;99.90;;;;;;5036323;28;20033;-68
2021/10/25 10:11:26;;;;;;;15.35;6.50;;;11.10;99.90;;;;;;5020909;28;20047;-69
2021/10/25 10:13:52;;;;;;;17.42;6.57;;;11.20;99.90;;;;;;5020518;28;20033;-68
2021/10/25 10:16:18;;;;;;;14.63;7.22;;;11.20;99.90;;;;;;5023632;28;20025;-69
2021/10/25 10:19:01;;;;;;;16.00;6.57;;;11.10;99.90;;;;;;5040238;28;20033;-69
2021/10/25 10:21:28;;;;;;;15.90;8.15;;;11.30;99.90;;;;;;5042710;28;20531;-69
2021/10/25 10:24:00;;;;;;;23.77;7.28;;;11.30;99.90;;;;;;5046802;28;20029;-68
2021/10/25 10:26:32;;;;;;;20.23;7.70;;;11.30;99.90;;;;;;5028203;28;20048;-70
2021/10/25 10:29:11;;;;;;;17.50;7.68;;;11.30;99.90;;;;;;5042086;28;20078;-69
2021/10/25 10:31:37;;;;;;;20.35;7.93;;;11.30;99.90;;;;;;5041985;28;20489;-69
2021/10/25 10:34:11;;;;;;;20.83;7.88;;;11.40;99.90;;;;;;5023659;28;20091;-69
2021/10/25 10:36:37;;;;;;;17.30;8.43;;;11.40;99.90;;;;;;5022641;28;20033;-69
2021/10/25 10:39:08;;;;;;;20.63;9.13;;;11.40;99.90;;;;;;5023435;28;20512;-69
2021/10/25 10:41:36;;;;;;;20.73;8.32;;;11.40;99.90;;;;;;5021823;28;20469;-69
2021/10/25 10:44:08;;;;;;;23.30;8.93;;;11.40;99.90;;;;;;5025135;28;20056;-69
2021/10/25 10:46:42;;;;;;;19.35;9.45;;;11.50;99.90;;;;;;5022778;28;20063;-68
2021/10/25 10:49:38;;;;;;;19.55;8.50;;;11.60;99.90;;;;;;5040742;28;20112;-70
2021/10/25 10:52:27;;;;;;;18.00;8.63;;;11.70;99.90;;;;;;5041625;28;20779;-71
2021/10/25 11:00:19;;;;;;;22.42;9.45;;;11.80;99.90;;;;;;5039543;28;20029;-70
2021/10/25 11:02:55;;;;;;;19.65;8.82;;;11.80;99.90;;;;;;5039151;28;20122;-69
2021/10/25 11:06:09;;;;;;;14.93;8.35;;;11.80;99.90;;;;;;5023992;28;20540;-69
2021/10/25 11:08:38;;;;;;;20.50;8.85;;;11.80;99.90;;;;;;4993680;28;20040;-68
2021/10/25 11:11:05;;;;;;;23.80;9.73;;;11.90;99.90;;;;;;5021160;28;20041;-72
2021/10/25 11:13:36;;;;;;;25.13;9.30;;;12.00;99.90;;;;;;5040991;28;20079;-69
2021/10/25 11:16:07;;;;;;;21.92;9.80;;;12.00;99.90;;;;;;5021363;28;20464;-70
2021/10/25 11:18:37;;;;;;;24.05;10.32;;;12.00;99.90;;;;;;5039971;28;20041;-69
2021/10/25 11:21:08;;;;;;;20.42;9.27;;;12.10;99.90;;;;;;5021127;28;20088;-69
2021/10/25 11:23:48;;;;;;;19.15;8.77;;;12.00;99.90;;;;;;5021862;28;20098;-69
2021/10/25 11:26:27;;;;;;;19.45;9.10;;;12.00;99.90;;;;;;5022502;28;20045;-69
2021/10/25 11:29:06;;;;;;;21.05;9.45;;;12.00;99.90;;;;;;5024040;28;20033;-69
2021/10/25 11:31:39;;;;;;;19.00;9.45;;;12.00;99.90;;;;;;5036579;28;20080;-68
2021/10/25 11:34:21;;;;;;;18.88;9.05;;;12.00;99.90;;;;;;5024898;28;20132;-69
2021/10/25 11:36:50;;;;;;;19.85;8.35;;;12.00;99.90;;;;;;5045774;28;20051;-68
2021/10/25 11:39:40;;;;;;;21.08;10.85;;;12.00;99.90;;;;;;5038838;28;20087;-68
2021/10/25 11:42:09;;;;;;;21.48;9.20;;;12.00;99.90;;;;;;5025896;28;20667;-68
2021/10/25 11:44:34;;;;;;;22.25;9.93;;;12.00;99.90;;;;;;5045087;28;20021;-68
2021/10/25 11:47:00;;;;;;;22.88;9.95;;;12.00;99.90;;;;;;5026125;28;20056;-67
2021/10/25 11:49:27;;;;;;;23.65;9.82;;;12.00;99.90;;;;;;5025415;28;20633;-68
2021/10/25 11:51:55;;;;;;;19.73;8.50;;;12.10;99.90;;;;;;5026462;28;20190;-68
2021/10/25 11:54:21;;;;;;;16.25;8.13;;;12.10;99.90;;;;;;5043243;28;20119;-69
2021/10/25 11:56:54;;;;;;;15.68;7.97;;;12.20;99.90;;;;;;5048935;28;20033;-68
2021/10/25 11:59:21;;;;;;;16.67;7.90;;;12.30;99.90;;;;;;5025383;28;20040;-69
2021/10/25 12:01:48;;;;;;;21.38;9.48;;;12.20;99.90;;;;;;5025067;28;20029;-68
2021/10/25 12:04:14;;;;;;;19.65;8.02;;;12.20;99.90;;;;;;5025814;28;20029;-69
2021/10/25 12:06:40;;;;;;;18.77;8.50;;;12.20;99.90;;;;;;5044350;28;20075;-68
2021/10/25 12:09:08;;;;;;;19.85;8.95;;;12.20;99.90;;;;;;5042803;28;20785;-70
2021/10/25 12:11:53;;;;;;;22.38;7.90;;;12.10;99.90;;;;;;5028663;28;20036;-69
2021/10/25 12:14:27;;;;;;;22.13;8.30;;;12.10;99.90;;;;;;5038349;28;20523;-69
2021/10/25 12:16:54;;;;;;;31.63;9.65;;;12.00;99.90;;;;;;5039399;28;20036;-68
2021/10/25 12:19:20;;;;;;;17.60;8.10;;;12.00;99.90;;;;;;5017297;28;20029;-68
2021/10/25 12:21:46;;;;;;;25.45;9.60;;;11.90;99.90;;;;;;5022454;28;20025;-68
2021/10/25 12:24:12;;;;;;;20.48;9.65;;;11.90;99.90;;;;;;5036430;28;20046;-67
2021/10/25 12:26:41;;;;;;;18.55;9.15;;;12.00;99.90;;;;;;5039756;28;20029;-67
2021/10/25 12:29:16;;;;;;;16.58;8.75;;;12.00;99.90;;;;;;5036920;28;20029;-68
2021/10/25 12:31:42;;;;;;;19.40;9.43;;;12.10;99.90;;;;;;5022473;28;20056;-68
2021/10/25 12:34:08;;;;;;;21.00;8.98;;;12.10;99.90;;;;;;5037159;28;20033;-69
2021/10/25 12:36:39;;;;;;;18.00;8.95;;;12.10;99.90;;;;;;5038490;28;20503;-68
2021/10/25 12:39:25;;;;;;;15.40;8.02;;;12.10;99.90;;;;;;5019270;28;20190;-69
2021/10/25 12:41:58;;;;;;;21.10;9.02;;;12.10;99.90;;;;;;5041292;28;20518;-68
2021/10/25 12:44:31;;;;;;;20.17;9.32;;;12.10;99.90;;;;;;5035674;28;20060;-68
2021/10/25 12:47:15;;;;;;;19.23;7.82;;;12.20;99.90;;;;;;5037990;28;20443;-68
2021/10/25 12:49:55;;;;;;;19.20;8.40;;;12.20;99.90;;;;;;5039516;28;20036;-68
2021/10/25 12:52:28;;;;;;;19.20;8.63;;;12.30;99.90;;;;;;5040107;28;20053;-68
2021/10/25 12:54:59;;;;;;;19.20;8.73;;;12.30;99.90;;;;;;5037264;28;20063;-68
2021/10/25 12:57:31;;;;;;;17.30;8.57;;;12.20;99.90;;;;;;5038395;28;20029;-69
2021/10/25 13:00:06;;;;;;;19.92;8.07;;;12.30;99.90;;;;;;5019715;28;20060;-68
2021/10/25 13:02:41;;;;;;;16.08;7.93;;;12.30;99.90;;;;;;5037663;28;20117;-69
2021/10/25 13:05:13;;;;;;;19.20;9.00;;;12.40;99.90;;;;;;5020315;28;20029;-70
2021/10/25 13:07:44;;;;;;;19.17;8.85;;;12.40;99.90;;;;;;5039953;28;20091;-69
2021/10/25 13:10:10;;;;;;;20.02;8.55;;;12.50;99.90;;;;;;5020903;28;20095;-70
2021/10/25 13:12:36;;;;;;;18.63;8.77;;;12.50;99.90;;;;;;5019863;28;20040;-69
2021/10/25 13:15:02;;;;;;;16.90;9.02;;;12.60;99.90;;;;;;5041234;28;20052;-69
2021/10/25 13:17:28;;;;;;;16.77;9.70;;;12.70;99.90;;;;;;5044229;28;20040;-68
2021/10/25 13:19:53;;;;;;;20.92;8.85;;;12.80;99.90;;;;;;5025816;28;20037;-69
2021/10/25 13:22:19;;;;;;;21.58;8.77;;;12.80;99.90;;;;;;5024949;28;20423;-69
2021/10/25 13:24:45;;;;;;;15.32;8.15;;;12.80;99.90;;;;;;5044968;28;20021;-69
2021/10/25 13:27:10;;;;;;;18.58;8.25;;;12.70;99.90;;;;;;5042779;28;20048;-69
2021/10/25 13:29:37;;;;;;;15.93;8.02;;;12.80;99.90;;;;;;5024995;28;20048;-68
2021/10/25 13:32:03;;;;;;;21.95;8.75;;;12.70;99.90;;;;;;5025915;28;20037;-69
2021/10/25 13:34:29;;;;;;;20.95;8.43;;;12.70;99.90;;;;;;5021553;28;20041;-69
2021/10/25 13:36:55;;;;;;;16.63;7.97;;;12.60;99.90;;;;;;5018084;28;20051;-68
2021/10/25 13:39:21;;;;;;;16.15;8.23;;;12.70;99.90;;;;;;5021307;28;20112;-68
2021/10/25 13:41:47;;;;;;;19.30;8.38;;;12.60;99.90;;;;;;5043867;28;20132;-69
2021/10/25 13:44:14;;;;;;;16.88;9.07;;;12.70;99.90;;;;;;5040619;28;20495;-68
2021/10/25 13:46:40;;;;;;;16.38;8.35;;;12.60;99.90;;;;;;5024553;28;20029;-69
2021/10/25 13:49:06;;;;;;;18.85;7.97;;;12.70;99.90;;;;;;5047373;28;20043;-69
2021/10/25 13:51:32;;;;;;;13.10;7.38;;;12.60;99.90;;;;;;5023533;28;20041;-70
2021/10/25 13:53:58;;;;;;;16.27;7.65;;;12.60;99.90;;;;;;5024640;28;20052;-68
2021/10/25 13:56:24;;;;;;;16.45;7.72;;;12.60;99.90;;;;;;5043737;28;20417;-69
2021/10/25 13:58:49;;;;;;;15.23;7.45;;;12.60;99.90;;;;;;5021721;28;20400;-69
2021/10/25 14:01:15;;;;;;;22.48;8.02;;;12.60;99.90;;;;;;5027659;28;20037;-69
2021/10/25 14:03:42;;;;;;;15.73;7.40;;;12.60;99.90;;;;;;5049716;28;20528;-69
2021/10/25 14:06:10;;;;;;;12.82;7.20;;;12.60;99.90;;;;;;5030334;28;20116;-69
2021/10/25 14:08:36;;;;;;;16.77;7.82;;;12.60;99.90;;;;;;5049226;28;20037;-69
2021/10/25 14:11:02;;;;;;;18.48;8.35;;;12.60;99.90;;;;;;5025711;28;20037;-70
2021/10/25 14:13:41;;;;;;;15.30;7.70;;;12.60;99.90;;;;;;5047275;28;20035;-69
2021/10/25 14:18:38;;;;;;;18.60;8.00;;;12.70;99.90;;;;;;5041613;28;20040;-68
2021/10/25 14:21:04;;;;;;;15.38;7.55;;;12.80;99.90;;;;;;5019092;28;20033;-68
2021/10/25 14:23:31;;;;;;;20.05;8.40;;;12.80;99.90;;;;;;5039264;28;20443;-69
2021/10/25 14:25:57;;;;;;;16.63;8.25;;;12.80;99.90;;;;;;5046376;28;20037;-68
2021/10/25 14:28:24;;;;;;;15.48;7.45;;;12.70;99.90;;;;;;5045178;28;20056;-69
2021/10/25 14:30:49;;;;;;;13.82;7.40;;;12.80;99.90;;;;;;5046638;28;20523;-69
2021/10/25 14:33:15;;;;;;;19.17;8.05;;;12.80;99.90;;;;;;5027030;28;20067;-69
2021/10/25 14:35:41;;;;;;;15.30;8.18;;;12.80;99.90;;;;;;5043976;28;20037;-68
2021/10/25 14:38:11;;;;;;;14.18;7.82;;;12.80;99.90;;;;;;5020730;28;20084;-69